sensor_id;sensor_type;location;lat;lon;timestamp;P1;durP1;ratioP1;P2;durP2;ratioP2
75050;SDS011;63628;47.656;11.310;2022-12-18T00:00:43;51.77;;;20.43;;
75050;SDS011;63628;47.656;11.310;2022-12-18T00:03:10;56.13;;;21.70;;
75050;SDS011;63628;47.656;11.310;2022-12-18T00:05:37;62.97;;;22.53;;
75050;SDS011;63628;47.656;11.310;2022-12-18T00:08:03;49.60;;;20.83;;
75050;SDS011;63628;47.656;11.310;2022-12-18T00:10:34;55.13;;;21.27;;
75050;SDS011;63628;47.656;11.310;2022-12-18T00:13:01;52.60;;;20.33;;
75050;SDS011;63628;47.656;11.310;2022-12-18T00:15:33;48.33;;;19.37;;
75050;SDS011;63628;47.656;11.310;2022-12-18T00:18:01;54.47;;;21.67;;
75050;SDS011;63628;47.656;11.310;2022-12-18T00:20:28;52.20;;;22.17;;
75050;SDS011;63628;47.656;11.310;2022-12-18T00:22:55;45.90;;;20.13;;
75050;SDS011;63628;47.656;11.310;2022-12-18T00:25:22;46.30;;;21.10;;
75050;SDS011;63628;47.656;11.310;2022-12-18T00:27:49;42.67;;;19.47;;
75050;SDS011;63628;47.656;11.310;2022-12-18T00:30:16;44.57;;;18.87;;
75050;SDS011;63628;47.656;11.310;2022-12-18T00:32:42;46.77;;;19.13;;
75050;SDS011;63628;47.656;11.310;2022-12-18T00:35:10;50.03;;;21.73;;
75050;SDS011;63628;47.656;11.310;2022-12-18T00:37:37;45.40;;;20.13;;
75050;SDS011;63628;47.656;11.310;2022-12-18T00:40:04;48.93;;;20.40;;
75050;SDS011;63628;47.656;11.310;2022-12-18T00:42:31;43.87;;;18.90;;
75050;SDS011;63628;47.656;11.310;2022-12-18T00:45:16;48.50;;;18.80;;
75050;SDS011;63628;47.656;11.310;2022-12-18T00:47:43;51.10;;;22.90;;
75050;SDS011;63628;47.656;11.310;2022-12-18T00:50:11;47.90;;;21.57;;
75050;SDS011;63628;47.656;11.310;2022-12-18T00:52:38;50.07;;;20.10;;
75050;SDS011;63628;47.656;11.310;2022-12-18T00:55:04;46.30;;;20.00;;
75050;SDS011;63628;47.656;11.310;2022-12-18T00:57:32;41.43;;;18.47;;
75050;SDS011;63628;47.656;11.310;2022-12-18T00:59:58;40.83;;;18.90;;
75050;SDS011;63628;47.656;11.310;2022-12-18T01:02:25;48.07;;;20.93;;
75050;SDS011;63628;47.656;11.310;2022-12-18T01:04:51;44.13;;;19.93;;
75050;SDS011;63628;47.656;11.310;2022-12-18T01:07:19;45.00;;;19.93;;
75050;SDS011;63628;47.656;11.310;2022-12-18T01:09:46;45.23;;;19.00;;
75050;SDS011;63628;47.656;11.310;2022-12-18T01:12:12;48.60;;;19.47;;
75050;SDS011;63628;47.656;11.310;2022-12-18T01:14:39;39.63;;;19.07;;
75050;SDS011;63628;47.656;11.310;2022-12-18T01:17:06;41.63;;;18.30;;
75050;SDS011;63628;47.656;11.310;2022-12-18T01:19:32;43.13;;;20.27;;
75050;SDS011;63628;47.656;11.310;2022-12-18T01:21:59;39.57;;;17.77;;
75050;SDS011;63628;47.656;11.310;2022-12-18T01:24:27;43.73;;;18.90;;
75050;SDS011;63628;47.656;11.310;2022-12-18T01:26:53;37.10;;;17.87;;
75050;SDS011;63628;47.656;11.310;2022-12-18T01:29:20;37.33;;;17.17;;
75050;SDS011;63628;47.656;11.310;2022-12-18T01:31:46;47.13;;;19.60;;
75050;SDS011;63628;47.656;11.310;2022-12-18T01:34:13;52.17;;;18.73;;
75050;SDS011;63628;47.656;11.310;2022-12-18T01:36:40;51.87;;;18.00;;
75050;SDS011;63628;47.656;11.310;2022-12-18T01:39:07;43.93;;;17.00;;
75050;SDS011;63628;47.656;11.310;2022-12-18T01:41:38;49.37;;;18.70;;
75050;SDS011;63628;47.656;11.310;2022-12-18T01:47:35;50.30;;;19.48;;
75050;SDS011;63628;47.656;11.310;2022-12-18T01:50:06;44.87;;;18.00;;
75050;SDS011;63628;47.656;11.310;2022-12-18T01:52:36;43.10;;;17.03;;
75050;SDS011;63628;47.656;11.310;2022-12-18T01:55:05;38.27;;;16.53;;
75050;SDS011;63628;47.656;11.310;2022-12-18T01:57:34;49.00;;;17.90;;
75050;SDS011;63628;47.656;11.310;2022-12-18T02:00:03;42.37;;;19.17;;
75050;SDS011;63628;47.656;11.310;2022-12-18T02:02:32;41.33;;;18.10;;
75050;SDS011;63628;47.656;11.310;2022-12-18T02:04:59;38.80;;;16.67;;
75050;SDS011;63628;47.656;11.310;2022-12-18T02:07:29;42.90;;;19.00;;
75050;SDS011;63628;47.656;11.310;2022-12-18T02:10:03;44.63;;;19.20;;
75050;SDS011;63628;47.656;11.310;2022-12-18T02:12:39;50.40;;;17.10;;
75050;SDS011;63628;47.656;11.310;2022-12-18T02:15:12;52.73;;;18.40;;
75050;SDS011;63628;47.656;11.310;2022-12-18T02:17:46;38.23;;;17.47;;
75050;SDS011;63628;47.656;11.310;2022-12-18T02:20:16;43.30;;;16.57;;
75050;SDS011;63628;47.656;11.310;2022-12-18T02:22:49;38.27;;;17.57;;
75050;SDS011;63628;47.656;11.310;2022-12-18T02:25:32;48.60;;;21.70;;
75050;SDS011;63628;47.656;11.310;2022-12-18T02:28:13;52.30;;;20.87;;
75050;SDS011;63628;47.656;11.310;2022-12-18T02:30:45;46.07;;;20.27;;
75050;SDS011;63628;47.656;11.310;2022-12-18T02:33:14;43.85;;;18.48;;
75050;SDS011;63628;47.656;11.310;2022-12-18T02:35:42;45.03;;;17.97;;
75050;SDS011;63628;47.656;11.310;2022-12-18T02:38:10;37.65;;;16.13;;
75050;SDS011;63628;47.656;11.310;2022-12-18T02:40:39;46.88;;;18.45;;
75050;SDS011;63628;47.656;11.310;2022-12-18T02:43:08;44.07;;;16.50;;
75050;SDS011;63628;47.656;11.310;2022-12-18T02:45:45;45.57;;;20.43;;
75050;SDS011;63628;47.656;11.310;2022-12-18T02:48:14;41.07;;;18.77;;
75050;SDS011;63628;47.656;11.310;2022-12-18T02:50:43;54.17;;;20.07;;
75050;SDS011;63628;47.656;11.310;2022-12-18T02:53:18;46.33;;;17.87;;
75050;SDS011;63628;47.656;11.310;2022-12-18T02:55:52;38.97;;;18.80;;
75050;SDS011;63628;47.656;11.310;2022-12-18T02:58:26;45.63;;;19.47;;
75050;SDS011;63628;47.656;11.310;2022-12-18T03:01:02;55.20;;;20.90;;
75050;SDS011;63628;47.656;11.310;2022-12-18T03:03:36;43.20;;;18.47;;
75050;SDS011;63628;47.656;11.310;2022-12-18T03:06:08;44.33;;;18.27;;
75050;SDS011;63628;47.656;11.310;2022-12-18T03:08:41;47.27;;;19.17;;
75050;SDS011;63628;47.656;11.310;2022-12-18T03:11:11;44.90;;;19.27;;
75050;SDS011;63628;47.656;11.310;2022-12-18T03:13:41;42.37;;;17.90;;
75050;SDS011;63628;47.656;11.310;2022-12-18T03:16:14;37.83;;;17.77;;
75050;SDS011;63628;47.656;11.310;2022-12-18T03:18:45;40.03;;;19.30;;
75050;SDS011;63628;47.656;11.310;2022-12-18T03:21:15;37.37;;;17.70;;
75050;SDS011;63628;47.656;11.310;2022-12-18T03:23:47;40.17;;;18.53;;
75050;SDS011;63628;47.656;11.310;2022-12-18T03:26:17;38.90;;;17.50;;
75050;SDS011;63628;47.656;11.310;2022-12-18T03:28:49;40.67;;;17.67;;
75050;SDS011;63628;47.656;11.310;2022-12-18T03:31:20;39.93;;;17.47;;
75050;SDS011;63628;47.656;11.310;2022-12-18T03:33:51;42.70;;;18.67;;
75050;SDS011;63628;47.656;11.310;2022-12-18T03:38:45;54.23;;;19.93;;
75050;SDS011;63628;47.656;11.310;2022-12-18T03:41:14;74.63;;;22.77;;
75050;SDS011;63628;47.656;11.310;2022-12-18T03:43:48;59.20;;;18.57;;
75050;SDS011;63628;47.656;11.310;2022-12-18T03:46:20;55.07;;;21.83;;
75050;SDS011;63628;47.656;11.310;2022-12-18T03:48:55;40.13;;;19.03;;
75050;SDS011;63628;47.656;11.310;2022-12-18T03:51:28;47.80;;;20.47;;
75050;SDS011;63628;47.656;11.310;2022-12-18T03:54:01;43.77;;;19.07;;
75050;SDS011;63628;47.656;11.310;2022-12-18T03:56:31;41.70;;;17.23;;
75050;SDS011;63628;47.656;11.310;2022-12-18T03:59:01;40.80;;;19.07;;
75050;SDS011;63628;47.656;11.310;2022-12-18T04:01:32;41.90;;;17.35;;
75050;SDS011;63628;47.656;11.310;2022-12-18T04:04:02;45.97;;;19.87;;
75050;SDS011;63628;47.656;11.310;2022-12-18T04:06:31;39.78;;;17.13;;
75050;SDS011;63628;47.656;11.310;2022-12-18T04:08:58;47.37;;;19.50;;
75050;SDS011;63628;47.656;11.310;2022-12-18T04:11:25;36.27;;;16.00;;
75050;SDS011;63628;47.656;11.310;2022-12-18T04:13:56;37.00;;;17.07;;
75050;SDS011;63628;47.656;11.310;2022-12-18T04:16:23;39.57;;;16.60;;
75050;SDS011;63628;47.656;11.310;2022-12-18T04:18:51;44.67;;;20.23;;
75050;SDS011;63628;47.656;11.310;2022-12-18T04:21:18;38.90;;;18.67;;
75050;SDS011;63628;47.656;11.310;2022-12-18T04:23:45;39.63;;;18.20;;
75050;SDS011;63628;47.656;11.310;2022-12-18T04:26:12;37.57;;;17.27;;
75050;SDS011;63628;47.656;11.310;2022-12-18T04:28:38;37.07;;;16.73;;
75050;SDS011;63628;47.656;11.310;2022-12-18T04:31:05;42.13;;;17.63;;
75050;SDS011;63628;47.656;11.310;2022-12-18T04:33:32;39.03;;;17.40;;
75050;SDS011;63628;47.656;11.310;2022-12-18T04:36:00;36.87;;;16.50;;
75050;SDS011;63628;47.656;11.310;2022-12-18T04:38:26;34.67;;;16.00;;
75050;SDS011;63628;47.656;11.310;2022-12-18T04:40:53;37.33;;;17.37;;
75050;SDS011;63628;47.656;11.310;2022-12-18T04:43:19;34.83;;;17.13;;
75050;SDS011;63628;47.656;11.310;2022-12-18T04:45:46;40.80;;;17.87;;
75050;SDS011;63628;47.656;11.310;2022-12-18T04:48:12;37.60;;;16.90;;
75050;SDS011;63628;47.656;11.310;2022-12-18T04:50:39;36.90;;;16.20;;
75050;SDS011;63628;47.656;11.310;2022-12-18T04:53:07;37.27;;;17.93;;
75050;SDS011;63628;47.656;11.310;2022-12-18T04:55:35;35.88;;;16.40;;
75050;SDS011;63628;47.656;11.310;2022-12-18T04:58:01;36.93;;;16.27;;
75050;SDS011;63628;47.656;11.310;2022-12-18T05:00:28;35.70;;;17.13;;
75050;SDS011;63628;47.656;11.310;2022-12-18T05:02:55;36.67;;;16.87;;
75050;SDS011;63628;47.656;11.310;2022-12-18T05:05:21;33.67;;;16.47;;
75050;SDS011;63628;47.656;11.310;2022-12-18T05:07:48;35.70;;;16.70;;
75050;SDS011;63628;47.656;11.310;2022-12-18T05:10:16;36.57;;;18.40;;
75050;SDS011;63628;47.656;11.310;2022-12-18T05:12:44;35.65;;;17.00;;
75050;SDS011;63628;47.656;11.310;2022-12-18T05:15:27;32.57;;;15.03;;
75050;SDS011;63628;47.656;11.310;2022-12-18T05:17:55;38.17;;;16.93;;
75050;SDS011;63628;47.656;11.310;2022-12-18T05:20:22;34.20;;;16.33;;
75050;SDS011;63628;47.656;11.310;2022-12-18T05:22:48;37.20;;;16.53;;
75050;SDS011;63628;47.656;11.310;2022-12-18T05:25:17;40.47;;;18.47;;
75050;SDS011;63628;47.656;11.310;2022-12-18T05:27:44;37.83;;;18.20;;
75050;SDS011;63628;47.656;11.310;2022-12-18T05:30:14;38.47;;;17.00;;
75050;SDS011;63628;47.656;11.310;2022-12-18T05:32:42;39.17;;;17.33;;
75050;SDS011;63628;47.656;11.310;2022-12-18T05:35:09;37.60;;;17.90;;
75050;SDS011;63628;47.656;11.310;2022-12-18T05:37:37;42.57;;;18.77;;
75050;SDS011;63628;47.656;11.310;2022-12-18T05:40:09;38.40;;;17.07;;
75050;SDS011;63628;47.656;11.310;2022-12-18T05:42:37;37.17;;;17.63;;
75050;SDS011;63628;47.656;11.310;2022-12-18T05:45:05;37.13;;;17.73;;
75050;SDS011;63628;47.656;11.310;2022-12-18T05:47:32;37.27;;;17.03;;
75050;SDS011;63628;47.656;11.310;2022-12-18T05:49:59;36.37;;;17.67;;
75050;SDS011;63628;47.656;11.310;2022-12-18T05:52:25;36.43;;;16.63;;
75050;SDS011;63628;47.656;11.310;2022-12-18T05:54:52;41.23;;;18.23;;
75050;SDS011;63628;47.656;11.310;2022-12-18T05:57:18;34.30;;;17.83;;
75050;SDS011;63628;47.656;11.310;2022-12-18T05:59:46;35.97;;;16.63;;
75050;SDS011;63628;47.656;11.310;2022-12-18T06:02:13;36.80;;;16.83;;
75050;SDS011;63628;47.656;11.310;2022-12-18T06:04:40;36.23;;;17.30;;
75050;SDS011;63628;47.656;11.310;2022-12-18T06:07:06;37.10;;;17.50;;
75050;SDS011;63628;47.656;11.310;2022-12-18T06:09:33;34.13;;;16.13;;
75050;SDS011;63628;47.656;11.310;2022-12-18T06:11:59;34.13;;;16.27;;
75050;SDS011;63628;47.656;11.310;2022-12-18T06:14:26;35.97;;;16.10;;
75050;SDS011;63628;47.656;11.310;2022-12-18T06:16:54;36.13;;;16.50;;
75050;SDS011;63628;47.656;11.310;2022-12-18T06:19:21;36.07;;;17.20;;
75050;SDS011;63628;47.656;11.310;2022-12-18T06:21:47;34.40;;;18.30;;
75050;SDS011;63628;47.656;11.310;2022-12-18T06:24:15;37.57;;;18.33;;
75050;SDS011;63628;47.656;11.310;2022-12-18T06:26:42;36.03;;;17.10;;
75050;SDS011;63628;47.656;11.310;2022-12-18T06:29:08;34.97;;;15.83;;
75050;SDS011;63628;47.656;11.310;2022-12-18T06:31:35;34.40;;;16.33;;
75050;SDS011;63628;47.656;11.310;2022-12-18T06:34:03;35.73;;;16.80;;
75050;SDS011;63628;47.656;11.310;2022-12-18T06:36:30;33.73;;;16.30;;
75050;SDS011;63628;47.656;11.310;2022-12-18T06:38:57;33.37;;;16.60;;
75050;SDS011;63628;47.656;11.310;2022-12-18T06:41:24;32.23;;;15.73;;
75050;SDS011;63628;47.656;11.310;2022-12-18T06:43:51;35.43;;;16.27;;
75050;SDS011;63628;47.656;11.310;2022-12-18T06:46:24;36.40;;;17.37;;
75050;SDS011;63628;47.656;11.310;2022-12-18T06:48:51;33.93;;;16.20;;
75050;SDS011;63628;47.656;11.310;2022-12-18T06:51:20;30.93;;;15.77;;
75050;SDS011;63628;47.656;11.310;2022-12-18T06:53:48;31.33;;;14.93;;
75050;SDS011;63628;47.656;11.310;2022-12-18T06:56:15;37.37;;;16.40;;
75050;SDS011;63628;47.656;11.310;2022-12-18T06:58:42;32.07;;;15.63;;
75050;SDS011;63628;47.656;11.310;2022-12-18T07:01:10;31.67;;;16.17;;
75050;SDS011;63628;47.656;11.310;2022-12-18T07:03:37;33.40;;;15.90;;
75050;SDS011;63628;47.656;11.310;2022-12-18T07:06:05;37.30;;;17.00;;
75050;SDS011;63628;47.656;11.310;2022-12-18T07:08:34;34.27;;;16.43;;
75050;SDS011;63628;47.656;11.310;2022-12-18T07:11:02;33.53;;;16.63;;
75050;SDS011;63628;47.656;11.310;2022-12-18T07:13:30;33.08;;;15.93;;
75050;SDS011;63628;47.656;11.310;2022-12-18T07:16:02;34.27;;;16.40;;
75050;SDS011;63628;47.656;11.310;2022-12-18T07:18:33;32.77;;;15.27;;
75050;SDS011;63628;47.656;11.310;2022-12-18T07:21:02;31.63;;;15.57;;
75050;SDS011;63628;47.656;11.310;2022-12-18T07:23:29;36.45;;;17.90;;
75050;SDS011;63628;47.656;11.310;2022-12-18T07:26:01;35.37;;;16.27;;
75050;SDS011;63628;47.656;11.310;2022-12-18T07:28:28;34.40;;;15.80;;
75050;SDS011;63628;47.656;11.310;2022-12-18T07:30:55;33.27;;;16.07;;
75050;SDS011;63628;47.656;11.310;2022-12-18T07:33:22;32.93;;;16.00;;
75050;SDS011;63628;47.656;11.310;2022-12-18T07:35:48;34.10;;;15.47;;
75050;SDS011;63628;47.656;11.310;2022-12-18T07:38:15;33.17;;;15.17;;
75050;SDS011;63628;47.656;11.310;2022-12-18T07:40:41;36.70;;;17.07;;
75050;SDS011;63628;47.656;11.310;2022-12-18T07:43:09;35.00;;;17.80;;
75050;SDS011;63628;47.656;11.310;2022-12-18T07:45:36;32.20;;;15.40;;
75050;SDS011;63628;47.656;11.310;2022-12-18T07:48:02;27.87;;;13.43;;
75050;SDS011;63628;47.656;11.310;2022-12-18T07:50:29;28.77;;;14.07;;
75050;SDS011;63628;47.656;11.310;2022-12-18T07:52:56;36.17;;;16.37;;
75050;SDS011;63628;47.656;11.310;2022-12-18T07:55:22;35.17;;;16.87;;
75050;SDS011;63628;47.656;11.310;2022-12-18T07:57:49;35.27;;;13.87;;
75050;SDS011;63628;47.656;11.310;2022-12-18T08:00:20;31.23;;;14.10;;
75050;SDS011;63628;47.656;11.310;2022-12-18T08:02:47;31.83;;;15.43;;
75050;SDS011;63628;47.656;11.310;2022-12-18T08:05:14;43.77;;;15.27;;
75050;SDS011;63628;47.656;11.310;2022-12-18T08:07:41;40.57;;;14.30;;
75050;SDS011;63628;47.656;11.310;2022-12-18T08:10:08;40.37;;;17.00;;
75050;SDS011;63628;47.656;11.310;2022-12-18T08:12:34;37.97;;;16.27;;
75050;SDS011;63628;47.656;11.310;2022-12-18T08:15:01;31.90;;;15.40;;
75050;SDS011;63628;47.656;11.310;2022-12-18T08:17:29;34.53;;;16.60;;
75050;SDS011;63628;47.656;11.310;2022-12-18T08:19:56;32.63;;;14.93;;
75050;SDS011;63628;47.656;11.310;2022-12-18T08:22:22;29.10;;;14.37;;
75050;SDS011;63628;47.656;11.310;2022-12-18T08:24:49;33.43;;;15.13;;
75050;SDS011;63628;47.656;11.310;2022-12-18T08:27:16;35.67;;;15.17;;
75050;SDS011;63628;47.656;11.310;2022-12-18T08:29:58;32.50;;;15.83;;
75050;SDS011;63628;47.656;11.310;2022-12-18T08:32:24;33.70;;;15.33;;
75050;SDS011;63628;47.656;11.310;2022-12-18T08:34:52;30.83;;;14.80;;
75050;SDS011;63628;47.656;11.310;2022-12-18T08:37:19;35.57;;;17.03;;
75050;SDS011;63628;47.656;11.310;2022-12-18T08:39:46;32.17;;;14.93;;
75050;SDS011;63628;47.656;11.310;2022-12-18T08:42:12;30.77;;;14.60;;
75050;SDS011;63628;47.656;11.310;2022-12-18T08:44:58;34.50;;;15.63;;
75050;SDS011;63628;47.656;11.310;2022-12-18T08:47:24;30.13;;;14.70;;
75050;SDS011;63628;47.656;11.310;2022-12-18T08:49:53;30.57;;;15.00;;
75050;SDS011;63628;47.656;11.310;2022-12-18T08:52:20;30.73;;;14.37;;
75050;SDS011;63628;47.656;11.310;2022-12-18T08:54:46;27.67;;;13.63;;
75050;SDS011;63628;47.656;11.310;2022-12-18T08:57:13;32.90;;;17.60;;
75050;SDS011;63628;47.656;11.310;2022-12-18T08:59:39;30.10;;;15.67;;
75050;SDS011;63628;47.656;11.310;2022-12-18T09:02:07;28.73;;;13.83;;
75050;SDS011;63628;47.656;11.310;2022-12-18T09:04:34;27.07;;;13.83;;
75050;SDS011;63628;47.656;11.310;2022-12-18T09:07:02;30.50;;;15.50;;
75050;SDS011;63628;47.656;11.310;2022-12-18T09:09:29;32.50;;;14.93;;
75050;SDS011;63628;47.656;11.310;2022-12-18T09:11:55;29.67;;;14.03;;
75050;SDS011;63628;47.656;11.310;2022-12-18T09:14:22;39.17;;;15.43;;
75050;SDS011;63628;47.656;11.310;2022-12-18T09:16:48;37.47;;;15.40;;
75050;SDS011;63628;47.656;11.310;2022-12-18T09:19:15;32.07;;;15.73;;
75050;SDS011;63628;47.656;11.310;2022-12-18T09:21:42;30.10;;;13.90;;
75050;SDS011;63628;47.656;11.310;2022-12-18T09:24:15;34.30;;;15.27;;
75050;SDS011;63628;47.656;11.310;2022-12-18T09:26:42;28.50;;;13.40;;
75050;SDS011;63628;47.656;11.310;2022-12-18T09:29:12;31.27;;;14.53;;
75050;SDS011;63628;47.656;11.310;2022-12-18T09:31:40;32.67;;;14.63;;
75050;SDS011;63628;47.656;11.310;2022-12-18T09:34:06;30.87;;;15.67;;
75050;SDS011;63628;47.656;11.310;2022-12-18T09:36:33;30.83;;;13.77;;
75050;SDS011;63628;47.656;11.310;2022-12-18T09:39:00;31.90;;;14.07;;
75050;SDS011;63628;47.656;11.310;2022-12-18T09:41:41;31.27;;;14.80;;
75050;SDS011;63628;47.656;11.310;2022-12-18T09:44:12;30.83;;;13.90;;
75050;SDS011;63628;47.656;11.310;2022-12-18T09:46:45;30.67;;;14.57;;
75050;SDS011;63628;47.656;11.310;2022-12-18T09:49:16;27.67;;;13.23;;
75050;SDS011;63628;47.656;11.310;2022-12-18T09:51:47;32.20;;;14.23;;
75050;SDS011;63628;47.656;11.310;2022-12-18T09:54:18;41.03;;;14.20;;
75050;SDS011;63628;47.656;11.310;2022-12-18T09:56:50;32.70;;;14.87;;
75050;SDS011;63628;47.656;11.310;2022-12-18T09:59:18;29.03;;;13.03;;
75050;SDS011;63628;47.656;11.310;2022-12-18T10:01:49;30.10;;;13.57;;
75050;SDS011;63628;47.656;11.310;2022-12-18T10:04:16;24.33;;;12.77;;
75050;SDS011;63628;47.656;11.310;2022-12-18T10:06:44;28.87;;;13.53;;
75050;SDS011;63628;47.656;11.310;2022-12-18T10:09:18;27.33;;;13.13;;
75050;SDS011;63628;47.656;11.310;2022-12-18T10:12:07;28.80;;;13.43;;
75050;SDS011;63628;47.656;11.310;2022-12-18T10:14:41;25.80;;;12.97;;
75050;SDS011;63628;47.656;11.310;2022-12-18T10:17:18;29.07;;;14.37;;
75050;SDS011;63628;47.656;11.310;2022-12-18T10:19:52;26.90;;;14.07;;
75050;SDS011;63628;47.656;11.310;2022-12-18T10:22:22;26.52;;;12.27;;
75050;SDS011;63628;47.656;11.310;2022-12-18T10:24:59;29.50;;;13.57;;
75050;SDS011;63628;47.656;11.310;2022-12-18T10:27:33;28.80;;;14.37;;
75050;SDS011;63628;47.656;11.310;2022-12-18T10:30:00;29.43;;;14.53;;
75050;SDS011;63628;47.656;11.310;2022-12-18T10:32:32;27.40;;;13.83;;
75050;SDS011;63628;47.656;11.310;2022-12-18T10:34:59;29.57;;;15.07;;
75050;SDS011;63628;47.656;11.310;2022-12-18T10:37:27;27.70;;;13.57;;
75050;SDS011;63628;47.656;11.310;2022-12-18T10:40:06;31.13;;;15.20;;
75050;SDS011;63628;47.656;11.310;2022-12-18T10:42:36;31.00;;;15.60;;
75050;SDS011;63628;47.656;11.310;2022-12-18T10:45:05;29.63;;;15.40;;
75050;SDS011;63628;47.656;11.310;2022-12-18T10:47:36;31.47;;;14.40;;
75050;SDS011;63628;47.656;11.310;2022-12-18T10:50:10;26.73;;;14.80;;
75050;SDS011;63628;47.656;11.310;2022-12-18T10:52:52;28.83;;;13.95;;
75050;SDS011;63628;47.656;11.310;2022-12-18T10:55:20;26.87;;;13.00;;
75050;SDS011;63628;47.656;11.310;2022-12-18T10:57:50;29.77;;;15.07;;
75050;SDS011;63628;47.656;11.310;2022-12-18T11:00:21;33.83;;;15.23;;
75050;SDS011;63628;47.656;11.310;2022-12-18T11:02:51;28.20;;;13.57;;
75050;SDS011;63628;47.656;11.310;2022-12-18T11:05:26;29.70;;;14.77;;
75050;SDS011;63628;47.656;11.310;2022-12-18T11:07:55;28.67;;;14.50;;
75050;SDS011;63628;47.656;11.310;2022-12-18T11:10:25;28.80;;;13.83;;
75050;SDS011;63628;47.656;11.310;2022-12-18T11:12:56;27.50;;;12.93;;
75050;SDS011;63628;47.656;11.310;2022-12-18T11:15:36;29.73;;;13.43;;
75050;SDS011;63628;47.656;11.310;2022-12-18T11:18:03;28.90;;;13.63;;
75050;SDS011;63628;47.656;11.310;2022-12-18T11:20:32;29.63;;;14.03;;
75050;SDS011;63628;47.656;11.310;2022-12-18T11:23:01;50.38;;;19.77;;
75050;SDS011;63628;47.656;11.310;2022-12-18T11:25:30;29.73;;;14.55;;
75050;SDS011;63628;47.656;11.310;2022-12-18T11:28:02;32.23;;;15.33;;
75050;SDS011;63628;47.656;11.310;2022-12-18T11:30:31;30.67;;;14.50;;
75050;SDS011;63628;47.656;11.310;2022-12-18T11:33:01;32.58;;;15.63;;
75050;SDS011;63628;47.656;11.310;2022-12-18T11:35:39;28.47;;;14.23;;
75050;SDS011;63628;47.656;11.310;2022-12-18T11:38:14;28.90;;;14.00;;
75050;SDS011;63628;47.656;11.310;2022-12-18T11:40:47;30.57;;;13.83;;
75050;SDS011;63628;47.656;11.310;2022-12-18T11:43:25;31.07;;;14.20;;
75050;SDS011;63628;47.656;11.310;2022-12-18T11:45:56;35.97;;;15.50;;
75050;SDS011;63628;47.656;11.310;2022-12-18T11:48:28;30.87;;;15.23;;
75050;SDS011;63628;47.656;11.310;2022-12-18T11:50:59;37.13;;;16.03;;
75050;SDS011;63628;47.656;11.310;2022-12-18T11:53:31;29.20;;;14.07;;
75050;SDS011;63628;47.656;11.310;2022-12-18T11:56:03;40.10;;;15.97;;
75050;SDS011;63628;47.656;11.310;2022-12-18T11:58:46;35.27;;;17.23;;
75050;SDS011;63628;47.656;11.310;2022-12-18T12:01:18;32.40;;;14.87;;
75050;SDS011;63628;47.656;11.310;2022-12-18T12:04:17;41.00;;;17.70;;
75050;SDS011;63628;47.656;11.310;2022-12-18T12:07:13;30.37;;;15.23;;
75050;SDS011;63628;47.656;11.310;2022-12-18T12:09:52;28.87;;;14.00;;
75050;SDS011;63628;47.656;11.310;2022-12-18T12:12:30;34.40;;;16.87;;
75050;SDS011;63628;47.656;11.310;2022-12-18T12:15:23;34.60;;;16.83;;
75050;SDS011;63628;47.656;11.310;2022-12-18T12:18:00;39.00;;;19.30;;
75050;SDS011;63628;47.656;11.310;2022-12-18T12:20:41;35.27;;;16.57;;
75050;SDS011;63628;47.656;11.310;2022-12-18T12:23:18;34.13;;;14.88;;
75050;SDS011;63628;47.656;11.310;2022-12-18T12:25:55;35.70;;;16.83;;
75050;SDS011;63628;47.656;11.310;2022-12-18T12:28:31;35.70;;;17.53;;
75050;SDS011;63628;47.656;11.310;2022-12-18T12:31:14;38.17;;;18.43;;
75050;SDS011;63628;47.656;11.310;2022-12-18T12:33:54;39.03;;;17.20;;
75050;SDS011;63628;47.656;11.310;2022-12-18T12:36:29;32.77;;;17.03;;
75050;SDS011;63628;47.656;11.310;2022-12-18T12:39:04;34.13;;;16.70;;
75050;SDS011;63628;47.656;11.310;2022-12-18T12:41:35;33.13;;;16.23;;
75050;SDS011;63628;47.656;11.310;2022-12-18T12:44:23;33.20;;;16.70;;
75050;SDS011;63628;47.656;11.310;2022-12-18T12:46:56;34.10;;;16.53;;
75050;SDS011;63628;47.656;11.310;2022-12-18T12:49:27;35.33;;;18.27;;
75050;SDS011;63628;47.656;11.310;2022-12-18T12:52:06;37.13;;;16.70;;
75050;SDS011;63628;47.656;11.310;2022-12-18T12:54:37;37.67;;;17.90;;
75050;SDS011;63628;47.656;11.310;2022-12-18T12:57:05;33.27;;;15.50;;
75050;SDS011;63628;47.656;11.310;2022-12-18T12:59:37;31.47;;;15.33;;
75050;SDS011;63628;47.656;11.310;2022-12-18T13:02:15;37.00;;;17.03;;
75050;SDS011;63628;47.656;11.310;2022-12-18T13:04:50;31.47;;;15.57;;
75050;SDS011;63628;47.656;11.310;2022-12-18T13:07:23;31.77;;;15.43;;
75050;SDS011;63628;47.656;11.310;2022-12-18T13:10:11;32.47;;;15.23;;
75050;SDS011;63628;47.656;11.310;2022-12-18T13:12:54;31.07;;;15.10;;
75050;SDS011;63628;47.656;11.310;2022-12-18T13:15:24;31.10;;;15.32;;
75050;SDS011;63628;47.656;11.310;2022-12-18T13:18:18;29.70;;;14.70;;
75050;SDS011;63628;47.656;11.310;2022-12-18T13:20:47;32.80;;;16.17;;
75050;SDS011;63628;47.656;11.310;2022-12-18T13:23:29;32.17;;;16.27;;
75050;SDS011;63628;47.656;11.310;2022-12-18T13:25:59;31.07;;;16.27;;
75050;SDS011;63628;47.656;11.310;2022-12-18T13:28:55;35.33;;;16.13;;
75050;SDS011;63628;47.656;11.310;2022-12-18T13:34:34;31.03;;;15.27;;
75050;SDS011;63628;47.656;11.310;2022-12-18T13:43:23;28.87;;;15.13;;
75050;SDS011;63628;47.656;11.310;2022-12-18T13:45:59;27.93;;;13.87;;
75050;SDS011;63628;47.656;11.310;2022-12-18T13:48:32;30.47;;;16.23;;
75050;SDS011;63628;47.656;11.310;2022-12-18T13:51:03;29.50;;;14.87;;
75050;SDS011;63628;47.656;11.310;2022-12-18T13:53:33;30.27;;;15.07;;
75050;SDS011;63628;47.656;11.310;2022-12-18T13:56:05;29.07;;;15.97;;
75050;SDS011;63628;47.656;11.310;2022-12-18T13:58:32;29.27;;;15.23;;
75050;SDS011;63628;47.656;11.310;2022-12-18T14:00:59;33.60;;;16.70;;
75050;SDS011;63628;47.656;11.310;2022-12-18T14:03:28;33.23;;;16.97;;
75050;SDS011;63628;47.656;11.310;2022-12-18T14:05:57;30.40;;;15.27;;
75050;SDS011;63628;47.656;11.310;2022-12-18T14:08:29;29.10;;;14.97;;
75050;SDS011;63628;47.656;11.310;2022-12-18T14:11:00;26.70;;;14.70;;
75050;SDS011;63628;47.656;11.310;2022-12-18T14:13:31;27.50;;;14.37;;
75050;SDS011;63628;47.656;11.310;2022-12-18T14:16:00;30.42;;;15.10;;
75050;SDS011;63628;47.656;11.310;2022-12-18T14:21:00;28.10;;;14.00;;
75050;SDS011;63628;47.656;11.310;2022-12-18T14:23:31;30.37;;;15.63;;
75050;SDS011;63628;47.656;11.310;2022-12-18T14:26:00;29.27;;;15.57;;
75050;SDS011;63628;47.656;11.310;2022-12-18T14:28:31;27.67;;;15.10;;
75050;SDS011;63628;47.656;11.310;2022-12-18T14:30:58;27.70;;;15.73;;
75050;SDS011;63628;47.656;11.310;2022-12-18T14:33:27;27.30;;;15.20;;
75050;SDS011;63628;47.656;11.310;2022-12-18T14:35:55;30.03;;;14.93;;
75050;SDS011;63628;47.656;11.310;2022-12-18T14:38:24;29.17;;;14.57;;
75050;SDS011;63628;47.656;11.310;2022-12-18T14:40:56;30.57;;;15.20;;
75050;SDS011;63628;47.656;11.310;2022-12-18T14:43:23;28.20;;;13.43;;